Time;durP1;ratioP1;P1;durP2;ratioP2;P2;SDS_P1;SDS_P2;PMS_P1;PMS_P2;Temp;Humidity;BMP_temperature;BMP_pressure;BME280_temperature;BME280_humidity;BME280_pressure;Samples;Min_cycle;Max_cycle;Signal;HPM_P1;HPM_P2
2022/05/17 00:02:16;;;;;;;3.87;2.83;;;19.40;55.20;;;;;;5034385;28;20442;-45
2022/05/17 00:04:43;;;;;;;4.43;2.97;;;19.40;55.30;;;;;;5033850;28;20447;-44
2022/05/17 00:07:10;;;;;;;5.03;2.50;;;19.60;55.50;;;;;;5034289;28;20510;-44
2022/05/17 00:09:36;;;;;;;5.43;2.80;;;19.20;55.20;;;;;;5033560;28;20530;-44
2022/05/17 00:12:05;;;;;;;9.30;2.70;;;19.60;55.50;;;;;;5034047;28;20475;-44
2022/05/17 00:14:34;;;;;;;4.30;2.87;;;19.40;55.50;;;;;;5034072;28;20459;-43
2022/05/17 00:17:01;;;;;;;7.87;2.60;;;19.30;55.40;;;;;;5034280;28;20443;-44
2022/05/17 00:19:29;;;;;;;6.67;2.83;;;19.00;55.30;;;;;;5033588;28;20435;-43
2022/05/17 00:21:57;;;;;;;8.23;3.20;;;19.70;55.90;;;;;;5034106;28;20438;-43
2022/05/17 00:24:25;;;;;;;12.60;2.50;;;19.20;55.60;;;;;;5033759;28;20460;-44
2022/05/17 00:26:53;;;;;;;5.97;2.83;;;19.40;55.90;;;;;;5033815;28;20442;-44
2022/05/17 00:29:21;;;;;;;4.47;3.10;;;19.60;56.10;;;;;;5033296;28;20431;-44
2022/05/17 00:31:48;;;;;;;7.03;2.57;;;19.30;55.90;;;;;;5033284;28;20444;-44
2022/05/17 00:34:15;;;;;;;6.17;2.80;;;19.00;55.80;;;;;;5032964;28;20539;-44
2022/05/17 00:36:41;;;;;;;11.73;5.03;;;19.40;56.20;;;;;;5033232;28;21015;-44
2022/05/17 00:39:08;;;;;;;3.60;2.20;;;19.30;56.10;;;;;;5032921;28;20434;-45
2022/05/17 00:41:35;;;;;;;5.23;3.07;;;19.30;56.10;;;;;;5033370;28;20442;-44
2022/05/17 00:46:53;;;;;;;5.77;2.80;;;19.40;56.40;;;;;;5033539;28;20450;-44
2022/05/17 00:49:27;;;;;;;8.10;2.67;;;19.30;56.50;;;;;;5033102;28;20804;-45
2022/05/17 00:51:57;;;;;;;4.13;2.40;;;19.30;56.80;;;;;;5033474;28;20449;-45
2022/05/17 00:54:24;;;;;;;4.47;2.60;;;18.70;56.60;;;;;;5033216;28;20455;-45
2022/05/17 00:56:56;;;;;;;7.97;2.80;;;18.80;57.10;;;;;;5033557;28;20796;-45
2022/05/17 00:59:23;;;;;;;5.80;2.40;;;19.00;57.40;;;;;;5032729;28;20436;-44
2022/05/17 01:01:51;;;;;;;7.90;2.60;;;18.70;57.40;;;;;;5033277;28;20438;-43
2022/05/17 01:04:20;;;;;;;3.97;2.63;;;18.80;57.90;;;;;;5032967;28;20468;-43
2022/05/17 01:06:50;;;;;;;3.47;2.80;;;19.20;58.30;;;;;;5033033;28;20443;-43
2022/05/17 01:09:16;;;;;;;5.60;2.40;;;18.70;58.10;;;;;;5032458;28;20428;-44
2022/05/17 01:11:43;;;;;;;8.73;3.40;;;19.20;58.60;;;;;;5032816;28;20928;-44
2022/05/17 01:16:56;;;;;;;4.53;2.80;;;18.90;58.50;;;;;;5033094;28;20442;-43
2022/05/17 01:19:23;;;;;;;3.70;2.93;;;18.80;58.60;;;;;;5032210;28;20446;-43
2022/05/17 01:21:51;;;;;;;8.30;3.10;;;19.10;59.10;;;;;;5032729;28;20450;-43
2022/05/17 01:24:18;;;;;;;5.60;2.43;;;18.80;59.10;;;;;;5032939;28;20955;-43
2022/05/17 01:26:52;;;;;;;4.30;2.53;;;18.80;59.50;;;;;;5033004;28;20445;-43
2022/05/17 01:29:18;;;;;;;3.73;2.23;;;19.30;60.50;;;;;;5032405;28;20435;-44
2022/05/17 01:31:45;;;;;;;5.53;2.80;;;18.60;60.30;;;;;;5032732;28;20439;-44
2022/05/17 01:34:12;;;;;;;3.40;2.60;;;18.50;60.40;;;;;;5032666;28;20483;-44
2022/05/17 01:36:40;;;;;;;7.33;2.63;;;19.00;62.00;;;;;;5033135;28;20494;-44
2022/05/17 01:39:08;;;;;;;3.73;2.50;;;18.90;62.20;;;;;;5033870;28;20796;-44
2022/05/17 01:41:35;;;;;;;4.33;2.30;;;18.90;62.70;;;;;;5035037;28;20434;-45
2022/05/17 01:44:02;;;;;;;6.73;3.10;;;18.40;62.50;;;;;;5034717;28;20458;-44
2022/05/17 01:46:29;;;;;;;14.97;2.83;;;18.90;64.20;;;;;;5035612;28;20453;-43
2022/05/17 01:48:56;;;;;;;5.27;2.93;;;19.00;66.20;;;;;;5034613;28;20485;-44
2022/05/17 01:51:23;;;;;;;6.07;3.17;;;19.20;65.90;;;;;;5034601;28;20442;-44
2022/05/17 01:53:50;;;;;;;3.43;2.80;;;18.70;67.60;;;;;;5034305;28;20486;-44
2022/05/17 01:56:18;;;;;;;5.87;3.00;;;18.60;70.50;;;;;;5034810;28;20442;-44
2022/05/17 01:58:45;;;;;;;4.73;2.67;;;18.10;71.00;;;;;;5034434;28;20442;-43
2022/05/17 02:01:12;;;;;;;5.40;3.10;;;18.50;73.70;;;;;;5034265;28;20490;-43
2022/05/17 02:03:39;;;;;;;7.37;3.27;;;18.20;74.90;;;;;;5035045;28;20470;-44
2022/05/17 02:06:06;;;;;;;11.37;3.60;;;18.40;76.50;;;;;;5034616;28;20426;-44
2022/05/17 02:08:32;;;;;;;10.37;4.73;;;18.30;79.50;;;;;;5033631;28;20443;-45
2022/05/17 02:10:59;;;;;;;9.27;4.53;;;18.10;82.00;;;;;;5034711;28;20440;-44
2022/05/17 02:13:27;;;;;;;8.10;4.00;;;18.70;85.80;;;;;;5034204;28;20488;-44
2022/05/17 02:15:54;;;;;;;7.87;4.10;;;18.10;88.90;;;;;;5034340;28;20962;-43
2022/05/17 02:18:20;;;;;;;10.63;4.33;;;18.20;90.20;;;;;;5034309;28;20930;-44
2022/05/17 02:20:47;;;;;;;11.00;4.80;;;17.90;90.90;;;;;;5033736;28;20445;-44
2022/05/17 02:23:13;;;;;;;12.77;4.00;;;17.90;91.60;;;;;;5034843;28;20461;-45
2022/05/17 02:25:41;;;;;;;6.13;4.23;;;17.30;92.30;;;;;;5034180;28;20431;-44
2022/05/17 02:28:09;;;;;;;8.23;4.30;;;17.70;93.40;;;;;;5033734;28;20465;-45
2022/05/17 02:30:37;;;;;;;5.70;4.40;;;17.60;93.60;;;;;;5034551;28;20940;-44
2022/05/17 02:33:06;;;;;;;14.13;4.00;;;17.60;94.40;;;;;;5039314;28;20489;-45
2022/05/17 02:35:32;;;;;;;4.97;4.17;;;17.70;94.50;;;;;;5037969;28;20445;-44
2022/05/17 02:37:59;;;;;;;7.73;4.20;;;17.60;95.00;;;;;;5037785;28;20440;-44
2022/05/17 02:40:26;;;;;;;13.33;4.90;;;17.10;95.50;;;;;;5036775;28;20437;-44
2022/05/17 02:42:53;;;;;;;6.40;4.53;;;17.50;96.60;;;;;;5037330;28;20459;-44
2022/05/17 02:45:19;;;;;;;5.90;4.63;;;17.60;97.50;;;;;;5037147;28;20520;-43
2022/05/17 02:47:48;;;;;;;5.17;4.50;;;17.50;97.70;;;;;;5035751;28;20456;-44
2022/05/17 02:50:15;;;;;;;6.53;5.07;;;17.90;98.30;;;;;;5037018;28;20435;-44
2022/05/17 02:52:42;;;;;;;9.23;4.47;;;17.70;98.80;;;;;;5037799;28;20509;-44
2022/05/17 02:55:09;;;;;;;8.43;4.90;;;17.20;99.90;;;;;;5037402;28;20443;-44
2022/05/17 02:57:38;;;;;;;8.73;4.97;;;17.50;99.90;;;;;;5038278;28;20483;-44
2022/05/17 03:00:07;;;;;;;7.00;5.77;;;17.30;99.90;;;;;;5037984;28;20453;-44
2022/05/17 03:02:34;;;;;;;8.63;5.23;;;17.40;99.90;;;;;;5038367;28;20441;-44
2022/05/17 03:05:02;;;;;;;7.87;4.93;;;17.30;99.90;;;;;;5039128;28;20454;-45
2022/05/17 03:07:28;;;;;;;7.47;5.30;;;17.30;99.90;;;;;;5039841;28;20449;-43
2022/05/17 03:09:55;;;;;;;6.50;4.90;;;16.80;99.90;;;;;;5038219;28;20451;-43
2022/05/17 03:12:22;;;;;;;7.53;5.60;;;17.30;99.90;;;;;;5039392;28;20437;-44
2022/05/17 03:14:48;;;;;;;17.83;5.90;;;17.20;99.90;;;;;;5039278;28;20496;-44
2022/05/17 03:17:17;;;;;;;9.57;5.50;;;17.20;99.90;;;;;;5038637;28;20432;-44
2022/05/17 03:19:45;;;;;;;8.93;5.50;;;17.20;99.90;;;;;;5038730;28;21039;-44
2022/05/17 03:22:13;;;;;;;8.40;5.10;;;17.60;99.90;;;;;;5038638;28;20428;-43
2022/05/17 03:24:40;;;;;;;12.80;6.20;;;17.40;99.90;;;;;;5037918;28;20459;-43
2022/05/17 03:27:07;;;;;;;9.40;5.70;;;17.20;99.90;;;;;;5038381;28;20432;-44
2022/05/17 03:29:34;;;;;;;9.60;5.10;;;17.20;99.90;;;;;;5037029;28;20460;-44
2022/05/17 03:32:01;;;;;;;7.90;4.93;;;17.60;99.90;;;;;;5037023;28;20464;-43
2022/05/17 03:34:28;;;;;;;5.83;4.83;;;17.20;99.90;;;;;;5036638;28;20484;-44
2022/05/17 03:36:56;;;;;;;6.97;4.73;;;17.10;99.90;;;;;;5037543;28;20535;-43
2022/05/17 03:39:24;;;;;;;6.80;4.43;;;17.40;99.90;;;;;;5035583;28;20989;-44
2022/05/17 03:41:52;;;;;;;9.07;5.30;;;17.20;99.90;;;;;;5037256;28;20465;-44
2022/05/17 03:44:18;;;;;;;13.63;4.90;;;17.30;99.90;;;;;;5035943;28;20446;-44
2022/05/17 03:46:45;;;;;;;10.00;5.10;;;17.10;99.90;;;;;;5034642;28;20445;-43
2022/05/17 03:49:11;;;;;;;6.67;4.53;;;17.10;99.90;;;;;;5034838;28;20540;-44
2022/05/17 03:51:38;;;;;;;8.93;5.13;;;17.10;99.90;;;;;;5036029;28;20972;-44
2022/05/17 03:54:05;;;;;;;9.63;5.47;;;16.90;99.90;;;;;;5035341;28;20481;-44
2022/05/17 03:56:33;;;;;;;11.90;5.77;;;16.90;99.90;;;;;;5035779;28;20435;-44
2022/05/17 03:59:00;;;;;;;7.10;5.20;;;16.90;99.90;;;;;;5036991;28;20928;-43
2022/05/17 04:01:27;;;;;;;11.60;6.57;;;17.00;99.90;;;;;;5035719;28;20446;-43
2022/05/17 04:03:53;;;;;;;10.60;5.30;;;16.80;99.90;;;;;;5034939;28;20479;-43
2022/05/17 04:06:21;;;;;;;9.73;6.47;;;17.10;99.90;;;;;;5035201;28;20486;-44
2022/05/17 04:08:48;;;;;;;7.23;6.30;;;16.80;99.90;;;;;;5034839;28;20539;-45
2022/05/17 04:11:14;;;;;;;9.60;5.63;;;16.80;99.90;;;;;;5033794;28;20455;-45
2022/05/17 04:13:42;;;;;;;11.07;5.33;;;16.70;99.90;;;;;;5034344;28;20584;-45
2022/05/17 04:16:11;;;;;;;11.03;5.97;;;16.90;99.90;;;;;;5033413;28;20916;-44
2022/05/17 04:18:38;;;;;;;6.57;5.63;;;16.70;99.90;;;;;;5033732;28;20467;-45
2022/05/17 04:21:05;;;;;;;7.67;5.80;;;16.70;99.90;;;;;;5033732;28;20424;-45
2022/05/17 04:23:32;;;;;;;6.70;5.40;;;16.60;99.90;;;;;;5033377;28;20806;-44
2022/05/17 04:25:59;;;;;;;6.20;4.27;;;16.90;99.90;;;;;;5033508;28;20510;-45
2022/05/17 04:28:26;;;;;;;8.60;5.33;;;16.70;99.90;;;;;;5033276;28;20439;-44
2022/05/17 04:30:54;;;;;;;9.40;4.40;;;16.50;99.90;;;;;;5033596;28;20447;-44
2022/05/17 04:33:21;;;;;;;8.83;4.80;;;16.30;99.90;;;;;;5032923;28;20518;-46
2022/05/17 04:35:47;;;;;;;10.07;4.90;;;16.40;99.90;;;;;;5032971;28;20432;-45
2022/05/17 04:38:15;;;;;;;8.70;5.70;;;16.40;99.90;;;;;;5032943;28;20468;-45
2022/05/17 04:40:42;;;;;;;7.80;5.13;;;16.50;99.90;;;;;;5032705;28;20451;-45
2022/05/17 04:43:09;;;;;;;7.97;5.60;;;16.40;99.90;;;;;;5032955;28;20466;-46
2022/05/17 04:45:36;;;;;;;7.67;4.30;;;16.40;99.90;;;;;;5032898;28;20474;-46
2022/05/17 04:48:05;;;;;;;8.73;6.10;;;16.40;99.90;;;;;;5032864;28;20436;-44
2022/05/17 04:50:32;;;;;;;8.83;5.50;;;16.60;99.90;;;;;;5032420;28;20912;-45
2022/05/17 04:52:59;;;;;;;10.00;5.90;;;15.90;99.90;;;;;;5030786;28;20471;-45
2022/05/17 04:55:26;;;;;;;8.80;5.80;;;16.50;99.90;;;;;;5032286;28;20486;-45
2022/05/17 04:57:52;;;;;;;14.73;5.97;;;16.40;99.90;;;;;;5032945;28;20435;-45
2022/05/17 05:00:22;;;;;;;7.27;4.93;;;16.10;99.90;;;;;;5032223;28;20427;-45
2022/05/17 05:02:49;;;;;;;10.50;5.80;;;16.40;99.90;;;;;;5032547;28;20975;-45
2022/05/17 05:05:18;;;;;;;8.37;5.83;;;16.40;99.90;;;;;;5032849;28;20458;-44
2022/05/17 05:07:45;;;;;;;8.67;6.30;;;16.40;99.90;;;;;;5033423;28;20431;-44
2022/05/17 05:10:13;;;;;;;8.70;6.43;;;16.90;99.90;;;;;;5031976;28;20501;-44
2022/05/17 05:12:39;;;;;;;9.43;5.93;;;16.50;99.90;;;;;;5032361;28;20455;-45
2022/05/17 05:15:07;;;;;;;13.30;6.80;;;16.40;99.90;;;;;;5031959;28;20471;-47
2022/05/17 05:17:36;;;;;;;16.50;10.30;;;16.70;99.90;;;;;;5032742;28;20441;-45
2022/05/17 05:20:05;;;;;;;14.47;7.37;;;16.00;99.90;;;;;;5032197;28;20455;-44
2022/05/17 05:22:34;;;;;;;10.00;6.93;;;16.30;99.90;;;;;;5032124;28;20436;-45
2022/05/17 05:25:01;;;;;;;10.60;7.63;;;16.40;99.90;;;;;;5032520;28;20428;-46
2022/05/17 05:27:32;;;;;;;9.83;6.40;;;16.80;99.90;;;;;;5032655;28;20431;-44
2022/05/17 05:30:00;;;;;;;8.73;7.83;;;16.30;99.90;;;;;;5032629;28;20415;-44
2022/05/17 05:32:26;;;;;;;10.53;6.90;;;16.40;99.90;;;;;;5032484;28;20501;-45
2022/05/17 05:34:53;;;;;;;9.63;7.07;;;16.40;99.90;;;;;;5032096;28;20479;-44
2022/05/17 05:37:20;;;;;;;12.27;6.87;;;15.90;99.90;;;;;;5032830;28;20469;-45
2022/05/17 05:39:48;;;;;;;8.43;6.40;;;16.90;99.90;;;;;;5033053;28;20439;-44
2022/05/17 05:42:14;;;;;;;12.27;7.47;;;16.40;99.90;;;;;;5032066;28;20893;-46
2022/05/17 05:44:41;;;;;;;9.70;5.93;;;16.50;99.90;;;;;;5032158;28;20890;-44
2022/05/17 05:47:08;;;;;;;5.70;4.63;;;16.80;99.90;;;;;;5032165;28;20475;-44
2022/05/17 05:49:34;;;;;;;14.60;6.77;;;16.50;99.90;;;;;;5031523;28;20917;-46
2022/05/17 05:52:01;;;;;;;10.50;6.60;;;16.30;99.90;;;;;;5032324;28;20436;-45
2022/05/17 05:54:27;;;;;;;12.10;7.10;;;16.50;99.90;;;;;;5031803;28;20479;-45
2022/05/17 05:56:59;;;;;;;10.13;7.17;;;16.70;99.90;;;;;;5032047;28;20435;-45
2022/05/17 05:59:28;;;;;;;12.60;8.17;;;16.10;99.90;;;;;;5031666;28;20465;-46
2022/05/17 06:01:55;;;;;;;12.53;6.67;;;16.40;99.90;;;;;;5032551;28;20497;-45
2022/05/17 06:04:21;;;;;;;11.23;6.60;;;16.30;99.90;;;;;;5032061;28;20463;-45
2022/05/17 06:06:48;;;;;;;14.00;7.57;;;16.50;99.90;;;;;;5036130;28;20527;-47
2022/05/17 06:09:15;;;;;;;12.07;8.37;;;16.40;99.90;;;;;;5035984;28;20490;-45
2022/05/17 06:11:41;;;;;;;7.60;5.70;;;16.30;99.90;;;;;;5035701;28;20438;-45
2022/05/17 06:14:09;;;;;;;9.43;6.20;;;16.00;99.90;;;;;;5035692;28;20688;-45
2022/05/17 06:16:36;;;;;;;10.80;6.43;;;16.90;99.90;;;;;;5035786;28;20802;-45
2022/05/17 06:19:04;;;;;;;9.60;6.73;;;16.40;99.90;;;;;;5036352;28;20431;-45
2022/05/17 06:21:31;;;;;;;10.37;7.10;;;16.70;99.90;;;;;;5036732;28;20467;-45
2022/05/17 06:23:57;;;;;;;7.60;6.17;;;16.00;99.90;;;;;;5036329;28;20458;-45
2022/05/17 06:26:24;;;;;;;8.37;5.60;;;16.30;99.90;;;;;;5036674;28;20469;-45
2022/05/17 06:28:51;;;;;;;16.13;7.50;;;16.70;99.90;;;;;;5035515;28;20765;-46
2022/05/17 06:31:18;;;;;;;11.10;6.87;;;16.70;99.90;;;;;;5036173;28;20456;-45
2022/05/17 06:33:45;;;;;;;9.87;6.80;;;17.10;99.90;;;;;;5035128;28;20463;-46
2022/05/17 06:36:11;;;;;;;10.90;6.70;;;17.00;99.90;;;;;;5035103;28;20436;-46
2022/05/17 06:38:38;;;;;;;9.97;5.87;;;16.30;99.90;;;;;;5035130;28;20956;-45
2022/05/17 06:41:05;;;;;;;8.33;6.10;;;16.60;99.90;;;;;;5035055;28;20443;-50
2022/05/17 06:43:34;;;;;;;15.30;7.37;;;16.80;99.90;;;;;;5035232;28;20451;-47
2022/05/17 06:46:01;;;;;;;8.20;6.53;;;16.80;99.90;;;;;;5035499;28;20724;-45
2022/05/17 06:48:28;;;;;;;11.07;7.27;;;16.80;99.90;;;;;;5034595;28;20551;-45
2022/05/17 06:50:55;;;;;;;12.80;6.10;;;16.60;99.90;;;;;;5035287;28;20885;-45
2022/05/17 06:53:22;;;;;;;26.87;21.70;;;17.10;99.90;;;;;;5034753;28;20984;-44
2022/05/17 06:55:48;;;;;;;11.47;7.37;;;17.30;99.90;;;;;;5034858;28;20472;-46
2022/05/17 06:58:15;;;;;;;9.90;5.80;;;17.30;99.90;;;;;;5035036;28;20429;-45
2022/05/17 07:00:41;;;;;;;7.20;5.60;;;17.90;99.90;;;;;;5034657;28;20436;-46
2022/05/17 07:03:08;;;;;;;7.97;5.60;;;17.50;99.90;;;;;;5034723;28;20452;-50
2022/05/17 07:05:36;;;;;;;9.10;6.07;;;17.30;99.90;;;;;;5034864;28;20837;-44
2022/05/17 07:08:05;;;;;;;8.37;5.57;;;17.50;99.90;;;;;;5034600;28;20539;-45
2022/05/17 07:13:16;;;;;;;8.77;6.00;;;18.20;99.90;;;;;;5034855;28;20543;-45
2022/05/17 07:15:46;;;;;;;9.80;4.90;;;17.90;99.90;;;;;;5034871;28;20481;-45
2022/05/17 07:18:17;;;;;;;8.03;5.63;;;18.10;99.90;;;;;;5033820;28;20467;-45
2022/05/17 07:20:45;;;;;;;8.57;5.33;;;18.50;99.90;;;;;;5033965;28;20448;-45
2022/05/17 07:23:12;;;;;;;16.70;6.03;;;18.40;99.90;;;;;;5035024;28;20544;-45
2022/05/17 07:25:41;;;;;;;8.97;5.43;;;18.40;99.90;;;;;;5036013;28;20436;-45
2022/05/17 07:28:08;;;;;;;10.40;5.77;;;18.70;99.90;;;;;;5033115;28;20544;-45
2022/05/17 07:30:35;;;;;;;10.00;5.27;;;18.20;99.90;;;;;;5033945;28;20443;-45
2022/05/17 07:33:01;;;;;;;8.10;5.20;;;18.80;99.90;;;;;;5034031;28;20454;-45
2022/05/17 07:35:28;;;;;;;9.97;6.23;;;19.20;99.90;;;;;;5033823;28;20493;-45
2022/05/17 07:37:56;;;;;;;9.27;5.80;;;19.20;99.90;;;;;;5034706;28;20445;-46
2022/05/17 07:40:23;;;;;;;9.43;5.87;;;19.20;99.80;;;;;;5033723;28;20450;-46
2022/05/17 07:42:50;;;;;;;8.10;5.90;;;19.50;99.90;;;;;;5033626;28;20553;-45
2022/05/17 07:45:17;;;;;;;8.37;6.13;;;19.40;99.90;;;;;;5034337;28;20443;-45
2022/05/17 07:47:43;;;;;;;13.27;6.93;;;19.50;99.90;;;;;;5033537;28;20443;-46
2022/05/17 07:50:11;;;;;;;9.90;6.53;;;19.90;99.90;;;;;;5033553;28;20431;-45
2022/05/17 07:52:38;;;;;;;10.53;6.70;;;19.70;99.90;;;;;;5034261;28;20968;-46
2022/05/17 07:55:07;;;;;;;13.30;6.87;;;19.80;99.90;;;;;;5033461;28;20478;-45
2022/05/17 07:57:37;;;;;;;14.77;6.93;;;19.70;99.90;;;;;;5033829;28;20432;-45
2022/05/17 08:00:05;;;;;;;11.43;7.83;;;19.70;99.90;;;;;;5033176;28;20436;-46
2022/05/17 08:02:39;;;;;;;7.93;6.40;;;19.80;99.90;;;;;;5033183;28;20583;-45
2022/05/17 08:05:09;;;;;;;16.10;8.20;;;19.60;99.90;;;;;;5033381;28;20485;-46
2022/05/17 08:07:36;;;;;;;17.23;8.63;;;19.80;99.90;;;;;;5033502;28;20475;-46
2022/05/17 08:10:03;;;;;;;13.27;7.90;;;19.90;99.90;;;;;;5032966;28;20440;-45
2022/05/17 08:12:31;;;;;;;13.43;7.77;;;19.80;99.90;;;;;;5033464;28;20440;-45
2022/05/17 08:14:57;;;;;;;15.57;9.43;;;19.90;99.90;;;;;;5033156;28;20869;-45
2022/05/17 08:17:24;;;;;;;18.63;9.37;;;19.50;99.90;;;;;;5033304;28;20436;-46
2022/05/17 08:19:51;;;;;;;17.27;9.80;;;20.20;99.90;;;;;;5032179;28;20936;-46
2022/05/17 08:22:17;;;;;;;12.93;9.60;;;20.20;99.90;;;;;;5031892;28;20457;-45
2022/05/17 08:27:37;;;;;;;12.03;9.07;;;20.40;99.90;;;;;;5013361;28;20530;-46
2022/05/17 08:30:11;;;;;;;10.60;8.37;;;19.80;99.70;;;;;;5020198;28;20440;-46
2022/05/17 08:35:30;;;;;;;10.57;9.23;;;20.30;99.50;;;;;;5032999;28;20488;-46
2022/05/17 08:37:58;;;;;;;13.17;8.50;;;21.10;99.60;;;;;;5032672;28;20522;-45
2022/05/17 08:40:25;;;;;;;13.30;7.97;;;20.60;99.20;;;;;;5032565;28;20915;-46
2022/05/17 08:43:00;;;;;;;12.30;8.40;;;20.30;98.60;;;;;;5032960;28;20460;-45
2022/05/17 08:45:37;;;;;;;11.10;7.83;;;20.80;98.70;;;;;;5032981;28;20429;-46
2022/05/17 08:48:04;;;;;;;9.00;7.87;;;21.10;98.50;;;;;;5032161;28;20858;-45
2022/05/17 08:50:38;;;;;;;9.80;7.77;;;21.40;98.40;;;;;;5031996;28;20449;-46
2022/05/17 08:53:09;;;;;;;11.73;7.87;;;21.70;98.20;;;;;;5033454;28;20458;-46
2022/05/17 08:55:40;;;;;;;13.63;9.33;;;21.00;97.70;;;;;;5033034;28;20486;-46
2022/05/17 08:58:13;;;;;;;11.23;8.07;;;20.90;97.70;;;;;;5032173;28;20491;-45
2022/05/17 09:00:43;;;;;;;11.70;7.90;;;20.90;97.70;;;;;;5032034;28;20442;-45
2022/05/17 09:03:27;;;;;;;11.63;8.07;;;21.40;97.60;;;;;;5032106;28;20457;-46
2022/05/17 09:06:00;;;;;;;10.80;7.37;;;21.50;97.60;;;;;;5032510;28;20803;-46
2022/05/17 09:08:34;;;;;;;15.60;8.70;;;20.90;96.60;;;;;;5031581;28;20952;-45
2022/05/17 09:11:10;;;;;;;10.03;8.40;;;20.90;96.50;;;;;;5032427;28;20448;-44
2022/05/17 09:13:47;;;;;;;11.70;7.10;;;21.10;96.70;;;;;;5032212;28;20534;-45
2022/05/17 09:16:16;;;;;;;8.07;6.90;;;21.20;96.70;;;;;;5032078;28;20480;-45
2022/05/17 09:18:47;;;;;;;29.50;11.00;;;21.10;96.70;;;;;;5032262;28;20944;-45
2022/05/17 09:21:27;;;;;;;10.10;6.97;;;21.00;96.90;;;;;;5032340;28;20442;-45
2022/05/17 09:23:54;;;;;;;12.23;6.77;;;21.20;97.10;;;;;;5032244;28;20464;-45
2022/05/17 09:26:21;;;;;;;16.97;7.63;;;21.30;97.00;;;;;;5032846;28;20438;-44
2022/05/17 09:28:52;;;;;;;12.07;6.80;;;21.40;96.90;;;;;;5032308;28;20430;-44
2022/05/17 09:31:30;;;;;;;7.20;5.47;;;21.30;96.80;;;;;;5012586;28;21182;-46
2022/05/17 09:33:58;;;;;;;11.97;6.67;;;21.60;96.70;;;;;;5012348;28;20456;-46
2022/05/17 09:36:31;;;;;;;6.93;6.00;;;21.40;96.20;;;;;;5012008;28;20501;-45
2022/05/17 09:38:59;;;;;;;9.73;6.10;;;21.60;96.10;;;;;;5011759;28;20485;-45
2022/05/17 09:41:30;;;;;;;6.97;5.67;;;21.90;96.00;;;;;;5012738;28;20978;-45
2022/05/17 09:44:01;;;;;;;9.43;6.60;;;21.30;95.40;;;;;;5012446;28;20900;-45
2022/05/17 09:46:32;;;;;;;7.07;5.80;;;21.80;95.50;;;;;;5012439;28;20450;-45
2022/05/17 09:54:39;;;;;;;6.67;5.90;;;22.10;95.30;;;;;;5012213;28;20458;-45
2022/05/17 09:57:15;;;;;;;7.30;5.80;;;21.60;94.90;;;;;;5050269;28;20973;-45
2022/05/17 09:59:42;;;;;;;8.90;6.13;;;22.40;95.00;;;;;;5051705;28;20980;-46
2022/05/17 10:02:41;;;;;;;9.13;6.00;;;21.90;94.70;;;;;;5051868;28;20434;-46
2022/05/17 10:05:16;;;;;;;9.20;6.70;;;22.10;94.00;;;;;;5053349;28;20444;-46
2022/05/17 10:07:48;;;;;;;8.60;5.70;;;22.00;93.70;;;;;;5053520;28;20436;-43
2022/05/17 10:10:23;;;;;;;9.17;5.97;;;22.10;93.60;;;;;;5052103;28;20431;-44
2022/05/17 10:12:54;;;;;;;9.80;6.20;;;22.30;93.10;;;;;;5051345;28;20765;-46
2022/05/17 10:15:22;;;;;;;7.63;5.00;;;22.80;91.90;;;;;;5052856;28;20227;-44
2022/05/17 10:17:55;;;;;;;8.40;5.47;;;22.50;91.90;;;;;;5052132;28;20428;-43
2022/05/17 10:20:27;;;;;;;8.17;5.60;;;22.70;91.10;;;;;;5051738;28;20200;-46
2022/05/17 10:22:59;;;;;;;7.73;5.33;;;22.60;91.00;;;;;;5038636;28;20972;-46
2022/05/17 10:25:32;;;;;;;7.43;5.60;;;22.60;91.10;;;;;;5033456;28;20432;-44
2022/05/17 10:28:02;;;;;;;14.80;6.07;;;22.80;90.80;;;;;;5035032;28;20446;-44
2022/05/17 10:30:40;;;;;;;7.37;5.03;;;22.90;90.70;;;;;;5035359;28;20531;-45
2022/05/17 10:33:15;;;;;;;6.90;5.17;;;23.00;90.40;;;;;;5034585;28;20451;-43
2022/05/17 10:35:47;;;;;;;7.30;5.00;;;22.90;90.40;;;;;;5036207;28;20471;-44
2022/05/17 10:38:22;;;;;;;11.70;5.77;;;22.90;90.40;;;;;;5036492;28;20454;-43
2022/05/17 10:40:51;;;;;;;6.07;5.10;;;23.00;90.50;;;;;;5036483;28;20472;-46
2022/05/17 10:43:21;;;;;;;7.40;5.20;;;23.00;90.30;;;;;;5034285;28;20480;-44
2022/05/17 10:46:00;;;;;;;11.40;7.30;;;23.10;90.40;;;;;;5034887;28;20927;-44
2022/05/17 10:48:39;;;;;;;10.03;7.90;;;23.10;90.30;;;;;;5034503;28;20444;-45
2022/05/17 10:51:13;;;;;;;6.67;5.40;;;23.20;88.70;;;;;;5035650;28;20759;-43
2022/05/17 10:53:54;;;;;;;8.47;5.47;;;23.10;88.20;;;;;;5040077;28;20456;-44
2022/05/17 10:56:32;;;;;;;6.20;5.60;;;23.10;87.90;;;;;;5038312;28;20551;-43
2022/05/17 10:59:07;;;;;;;10.60;5.30;;;23.20;88.10;;;;;;5039393;28;20446;-44
2022/05/17 11:01:42;;;;;;;9.13;5.83;;;23.00;87.80;;;;;;5040027;28;20444;-45
2022/05/17 11:04:25;;;;;;;13.40;7.17;;;23.20;88.00;;;;;;5039231;28;20471;-44
2022/05/17 11:07:03;;;;;;;14.00;6.93;;;23.20;87.70;;;;;;5039197;28;20467;-43
2022/05/17 11:09:36;;;;;;;7.80;5.20;;;23.20;87.90;;;;;;5038553;28;20427;-44
2022/05/17 11:12:09;;;;;;;12.17;5.90;;;23.20;86.50;;;;;;5039179;28;20451;-46
2022/05/17 11:14:45;;;;;;;8.93;6.17;;;23.20;86.00;;;;;;5035853;28;20516;-42
2022/05/17 11:17:24;;;;;;;9.20;6.00;;;23.30;86.00;;;;;;5034955;28;20491;-44
2022/05/17 11:20:03;;;;;;;13.20;7.00;;;23.40;86.30;;;;;;5035277;28;20438;-44
2022/05/17 11:22:38;;;;;;;14.60;5.50;;;23.40;85.30;;;;;;5035943;28;20459;-43
2022/05/17 11:25:29;;;;;;;8.50;4.97;;;23.40;83.50;;;;;;5034867;28;20837;-44
2022/05/17 11:28:13;;;;;;;8.37;5.57;;;23.50;82.40;;;;;;5035944;28;20548;-44
2022/05/17 11:30:47;;;;;;;7.00;5.20;;;23.60;82.10;;;;;;5034682;28;20485;-44
2022/05/17 11:33:32;;;;;;;7.13;4.97;;;23.40;82.40;;;;;;5035080;28;20852;-44
2022/05/17 11:36:02;;;;;;;8.07;5.10;;;23.40;82.70;;;;;;5034862;28;20964;-44
2022/05/17 11:38:47;;;;;;;6.43;5.37;;;23.40;82.90;;;;;;5035290;28;20444;-44
2022/05/17 11:41:19;;;;;;;7.33;5.47;;;23.50;83.00;;;;;;5035582;28;20442;-45
2022/05/17 11:43:49;;;;;;;6.70;4.80;;;23.40;82.70;;;;;;5035539;28;20474;-44
2022/05/17 11:46:54;;;;;;;7.67;5.50;;;23.50;83.00;;;;;;5036946;28;20439;-45
2022/05/17 11:49:30;;;;;;;8.00;5.33;;;23.60;83.50;;;;;;5033305;28;20551;-45
2022/05/17 11:52:23;;;;;;;7.30;5.13;;;23.60;84.90;;;;;;5034727;28;20529;-44
2022/05/17 11:54:51;;;;;;;7.43;5.20;;;23.60;84.40;;;;;;5034518;28;20431;-44
2022/05/17 11:58:00;;;;;;;7.13;4.80;;;23.50;85.10;;;;;;5034628;28;20489;-45
2022/05/17 12:00:45;;;;;;;6.43;4.80;;;23.50;84.00;;;;;;5034752;28;20838;-45
2022/05/17 12:03:54;;;;;;;10.60;5.30;;;23.00;82.40;;;;;;5034090;28;20824;-44
2022/05/17 12:06:41;;;;;;;6.27;4.50;;;23.50;81.60;;;;;;5033963;28;20539;-44
2022/05/17 12:09:25;;;;;;;9.00;5.40;;;23.50;81.70;;;;;;5035268;28;20454;-44
2022/05/17 12:12:02;;;;;;;37.33;5.77;;;23.70;80.90;;;;;;5035228;28;20450;-44
2022/05/17 12:14:32;;;;;;;11.77;5.07;;;23.60;80.50;;;;;;5032894;28;20964;-46
2022/05/17 12:17:02;;;;;;;4.90;4.40;;;23.80;80.10;;;;;;5035130;28;20480;-45
2022/05/17 12:19:36;;;;;;;9.80;4.40;;;23.70;78.30;;;;;;5034374;28;20435;-44
2022/05/17 12:22:10;;;;;;;6.97;4.97;;;23.80;77.60;;;;;;5033969;28;20448;-45
2022/05/17 12:24:48;;;;;;;7.90;5.00;;;23.90;76.10;;;;;;5034295;28;20599;-43
2022/05/17 12:27:21;;;;;;;7.17;4.53;;;23.90;75.70;;;;;;5033703;28;20939;-44
2022/05/17 12:32:43;;;;;;;6.47;4.20;;;23.90;75.50;;;;;;5022651;28;20644;-44
2022/05/17 12:35:10;;;;;;;7.60;4.63;;;24.00;76.10;;;;;;5033447;28;20442;-44
2022/05/17 12:37:43;;;;;;;8.10;4.90;;;24.10;75.50;;;;;;5033385;28;21032;-44
2022/05/17 12:43:22;;;;;;;5.37;4.20;;;24.00;74.70;;;;;;4990839;28;20930;-44
2022/05/17 12:45:49;;;;;;;8.33;3.43;;;24.00;73.90;;;;;;4991717;28;20425;-44
2022/05/17 12:48:20;;;;;;;8.00;4.30;;;24.50;73.90;;;;;;5011691;28;20486;-45
2022/05/17 12:50:51;;;;;;;8.40;4.67;;;23.70;72.60;;;;;;5033032;28;20440;-44
2022/05/17 12:53:24;;;;;;;9.67;4.37;;;24.10;72.40;;;;;;5033265;28;20455;-44
2022/05/17 12:56:04;;;;;;;7.97;4.23;;;24.20;71.70;;;;;;5032796;28;20444;-44
2022/05/17 12:58:32;;;;;;;9.40;4.53;;;24.20;71.20;;;;;;5032532;28;20923;-44
2022/05/17 13:00:59;;;;;;;7.00;5.70;;;24.00;71.40;;;;;;5032085;28;20438;-44
2022/05/17 13:03:29;;;;;;;15.40;4.37;;;24.00;71.10;;;;;;5031746;28;20530;-45
2022/05/17 13:06:01;;;;;;;6.97;4.00;;;23.90;70.70;;;;;;5032160;28;20446;-47
2022/05/17 13:08:31;;;;;;;4.10;3.47;;;24.00;70.60;;;;;;5032751;28;20434;-44
2022/05/17 13:11:02;;;;;;;7.10;3.90;;;23.90;69.50;;;;;;5032717;28;20439;-45
2022/05/17 13:13:31;;;;;;;9.93;4.30;;;24.00;68.20;;;;;;5033165;28;20454;-44
2022/05/17 13:16:03;;;;;;;5.07;3.73;;;23.90;68.40;;;;;;5032167;28;20468;-44
2022/05/17 13:18:43;;;;;;;8.13;4.37;;;23.90;68.10;;;;;;5032504;28;20431;-43
2022/05/17 13:21:20;;;;;;;4.90;3.87;;;24.40;68.90;;;;;;5032572;28;20437;-44
2022/05/17 13:23:47;;;;;;;4.93;3.20;;;23.90;68.80;;;;;;5013122;28;20538;-45